Pagina principale
METAR-TAF:

METAR-TAF

Aeroporti :

Aeroporto di Katowice-Pyrzowice

Katowice, Polonia

latitudine: 50-28-27N, longitudine: 019-04-48E, altezza: 284 m

Osservazione

Il bollettino è stato emesso 20 minuti fa, alle 13:30 UTC
Vento 8 kt da ovest/sud-ovest, variando fra sud/sud-ovest e ovest
Temperature 26°C
Umidità 39%
Pressione 1015 hPa
Visibilità 10 km o più
nessuna nube inferiore a 1500 m e nessun cumulonembo

METAR: EPKT 171330Z 24008KT 200V270 CAVOK 26/11 Q1015

Ora: 15:50 (13:50 UTC)

Previsione

Il bollettino è stato emesso 2 ore e 20 minuti fa, alle 11:30 UTC
Previsione valida dal 17 alle 12 UTC al 18 alle 12 UTC
Vento 5 kt da sud-ovest
Visibilità 10 km o più
nessuna nube inferiore a 1500 m e nessun cumulonembo

TAF: EPKT 171130Z 1712/1812 23005KT CAVOK

Osservazioni e previsioni meteorologiche di più di 4000 aeroporti (messaggi METAR e TAF).

Le stazioni disponibili sono rappresentate dai dischi gialli e rossi sulla carta.

Puntare il mouse per vedere il nome della stazione.

Clicca sopra per visualizzare le osservazioni e previsioni meteorologiche.

Per cambiare la mappa : fare clic sui pulsanti verdi con una croce nera per ingrandire, il pulsante verde con un trattino per diminuire, o sulla freccia verde per le mappe adiacenti.


METAR-TAF: